createdAt,value
2023-02-23T00:01:53.391Z,11.60
2023-02-23T00:04:20.032Z,11.60
2023-02-23T00:06:46.706Z,11.60
2023-02-23T00:09:23.034Z,11.50
2023-02-23T00:11:54.972Z,11.50
2023-02-23T00:14:27.333Z,11.50
2023-02-23T00:16:55.208Z,11.50
2023-02-23T00:19:24.798Z,11.50
2023-02-23T00:21:52.856Z,11.50
2023-02-23T00:24:20.709Z,11.50
2023-02-23T00:26:48.317Z,11.50
2023-02-23T00:29:18.268Z,11.50
2023-02-23T00:31:46.174Z,11.50
2023-02-23T00:34:16.200Z,11.50
2023-02-23T00:36:43.327Z,11.50
2023-02-23T00:39:21.688Z,11.50
2023-02-23T00:41:52.864Z,11.50
2023-02-23T00:44:21.730Z,11.40
2023-02-23T00:46:51.338Z,11.40
2023-02-23T00:49:20.748Z,11.40
2023-02-23T00:51:47.441Z,11.50
2023-02-23T00:54:15.929Z,11.40
2023-02-23T00:56:42.572Z,11.40
2023-02-23T00:59:09.903Z,11.40
2023-02-23T01:01:37.557Z,11.40
2023-02-23T01:04:05.591Z,11.50
2023-02-23T01:06:32.428Z,11.40
2023-02-23T01:08:59.296Z,11.40
2023-02-23T01:11:28.122Z,11.40
2023-02-23T01:13:57.031Z,11.40
2023-02-23T01:16:28.880Z,11.30
2023-02-23T01:18:57.790Z,11.30
2023-02-23T01:21:33.424Z,11.30
2023-02-23T01:24:00.869Z,11.40
2023-02-23T01:26:30.355Z,11.40
2023-02-23T01:29:00.487Z,11.40
2023-02-23T01:31:29.220Z,11.40
2023-02-23T01:33:57.597Z,11.30
2023-02-23T01:36:31.198Z,11.40
2023-02-23T01:39:00.269Z,11.40
2023-02-23T01:41:32.747Z,11.40
2023-02-23T01:44:05.754Z,11.40
2023-02-23T01:46:35.561Z,11.30
2023-02-23T01:49:04.105Z,11.30
2023-02-23T01:51:40.470Z,11.40
2023-02-23T01:54:15.757Z,11.30
2023-02-23T01:56:49.134Z,11.30
2023-02-23T01:59:17.845Z,11.30
2023-02-23T02:01:45.327Z,11.30
2023-02-23T02:04:16.775Z,11.30
2023-02-23T02:06:46.887Z,11.30
2023-02-23T02:09:17.420Z,11.30
2023-02-23T02:11:46.282Z,11.30
2023-02-23T02:14:22.011Z,11.30
2023-02-23T02:17:17.786Z,11.30
2023-02-23T02:20:14.556Z,11.30
2023-02-23T02:23:09.615Z,11.30
2023-02-23T02:26:00.912Z,11.30
2023-02-23T02:28:43.944Z,11.30
2023-02-23T02:31:31.592Z,11.30
2023-02-23T02:34:22.456Z,11.30
2023-02-23T02:37:17.003Z,11.30
2023-02-23T02:40:14.921Z,11.30
2023-02-23T02:42:59.589Z,11.30
2023-02-23T02:45:50.616Z,11.30
2023-02-23T02:48:44.458Z,11.30
2023-02-23T02:51:28.340Z,11.30
2023-02-23T02:54:06.498Z,11.30
2023-02-23T02:56:40.122Z,11.30
2023-02-23T02:59:32.123Z,11.30
2023-02-23T03:02:17.926Z,11.30
2023-02-23T03:05:03.221Z,11.30
2023-02-23T03:07:58.952Z,11.30
2023-02-23T03:11:05.782Z,11.30
2023-02-23T03:14:21.413Z,11.30
2023-02-23T03:17:23.422Z,11.30
2023-02-23T03:20:22.363Z,11.30
2023-02-23T03:23:35.014Z,11.20
2023-02-23T03:26:27.016Z,11.20
2023-02-23T03:29:44.244Z,11.30
2023-02-23T03:32:44.033Z,11.20
2023-02-23T03:35:43.455Z,11.20
2023-02-23T03:38:37.899Z,11.30
2023-02-23T03:41:27.744Z,11.20
2023-02-23T03:44:17.706Z,11.30
2023-02-23T03:47:05.601Z,11.30
2023-02-23T03:49:55.439Z,11.20
2023-02-23T03:52:45.329Z,11.20
2023-02-23T03:55:41.580Z,11.20
2023-02-23T03:58:31.573Z,11.20
2023-02-23T04:01:20.605Z,11.20
2023-02-23T04:04:08.413Z,11.20
2023-02-23T04:06:59.380Z,11.20
2023-02-23T04:09:44.750Z,11.20
2023-02-23T04:12:55.891Z,11.20
2023-02-23T04:15:31.937Z,11.20
2023-02-23T04:17:59.042Z,11.10
2023-02-23T04:20:26.779Z,11.10
2023-02-23T04:22:53.487Z,11.10
2023-02-23T04:25:22.737Z,11.10
2023-02-23T04:27:50.214Z,11.20
2023-02-23T04:30:17.314Z,11.20
2023-02-23T04:32:45.874Z,11.20
2023-02-23T04:35:13.575Z,11.20
2023-02-23T04:37:40.230Z,11.20
2023-02-23T04:40:07.675Z,11.20
2023-02-23T04:42:34.318Z,11.20
2023-02-23T04:45:00.963Z,11.20
2023-02-23T04:47:27.628Z,11.20
2023-02-23T04:49:54.295Z,11.20
2023-02-23T04:52:20.876Z,11.30
2023-02-23T04:54:48.102Z,11.20
2023-02-23T04:57:14.768Z,11.20
2023-02-23T04:59:41.561Z,11.20
2023-02-23T05:02:08.663Z,11.20
2023-02-23T05:04:35.480Z,11.20
2023-02-23T05:07:03.550Z,11.20
2023-02-23T05:09:30.826Z,11.20
2023-02-23T05:11:57.509Z,11.20
2023-02-23T05:14:24.122Z,11.20
2023-02-23T05:16:50.913Z,11.20
2023-02-23T05:19:18.290Z,11.20
2023-02-23T05:21:45.029Z,11.20
2023-02-23T05:24:11.748Z,11.20
2023-02-23T05:26:38.438Z,11.10
2023-02-23T05:29:06.536Z,11.20
2023-02-23T05:31:33.927Z,11.20
2023-02-23T05:34:00.673Z,11.20
2023-02-23T05:36:27.670Z,11.10
2023-02-23T05:38:54.451Z,11.20
2023-02-23T05:41:23.010Z,11.20
2023-02-23T05:43:53.879Z,11.20
2023-02-23T05:46:24.070Z,11.20
2023-02-23T05:48:55.173Z,11.20
2023-02-23T05:51:21.980Z,11.10
2023-02-23T05:53:48.871Z,11.10
2023-02-23T05:56:20.290Z,11.10
2023-02-23T05:58:51.727Z,11.10
2023-02-23T06:01:19.466Z,11.10
2023-02-23T06:03:47.271Z,11.00
2023-02-23T06:06:14.719Z,11.10
2023-02-23T06:08:42.053Z,11.10
2023-02-23T06:11:09.131Z,11.10
2023-02-23T06:13:36.541Z,11.10
2023-02-23T06:16:03.819Z,11.10
2023-02-23T06:18:30.828Z,11.10
2023-02-23T06:21:01.024Z,11.10
2023-02-23T06:23:31.524Z,11.10
2023-02-23T06:25:59.463Z,11.10
2023-02-23T06:28:29.958Z,11.10
2023-02-23T06:30:57.140Z,11.10
2023-02-23T06:33:24.177Z,11.10
2023-02-23T06:35:51.012Z,11.10
2023-02-23T06:38:17.741Z,11.10
2023-02-23T06:40:44.539Z,11.10
2023-02-23T06:43:11.333Z,11.10
2023-02-23T06:45:37.974Z,11.10
2023-02-23T06:48:05.145Z,11.10
2023-02-23T06:50:31.868Z,11.10
2023-02-23T06:52:59.126Z,11.10
2023-02-23T06:55:25.752Z,11.10
2023-02-23T06:57:53.359Z,11.10
2023-02-23T07:00:20.693Z,11.10
2023-02-23T07:02:48.342Z,11.20
2023-02-23T07:05:15.137Z,11.20
2023-02-23T07:07:41.874Z,11.20
2023-02-23T07:10:09.185Z,11.20
2023-02-23T07:12:35.808Z,11.10
2023-02-23T07:15:02.592Z,11.20
2023-02-23T07:17:29.213Z,11.20
2023-02-23T07:19:55.949Z,11.30
2023-02-23T07:22:24.768Z,11.30
2023-02-23T07:24:51.369Z,11.30
2023-02-23T07:27:18.062Z,11.40
2023-02-23T07:29:44.706Z,11.40
2023-02-23T07:32:11.813Z,11.40
2023-02-23T07:34:38.941Z,11.50
2023-02-23T07:37:06.292Z,11.40
2023-02-23T07:39:32.900Z,11.50
2023-02-23T07:41:59.509Z,11.40
2023-02-23T07:44:26.176Z,11.40
2023-02-23T07:46:53.133Z,11.30
2023-02-23T07:49:19.799Z,11.30
2023-02-23T07:51:46.649Z,11.30
2023-02-23T07:54:13.594Z,11.40
2023-02-23T07:56:40.298Z,11.30
2023-02-23T07:59:06.939Z,11.40
2023-02-23T08:01:33.748Z,11.40
2023-02-23T08:04:00.906Z,11.40
2023-02-23T08:06:27.706Z,11.30
2023-02-23T08:08:54.341Z,11.30
2023-02-23T08:11:21.469Z,11.40
2023-02-23T08:13:48.120Z,11.30
2023-02-23T08:16:16.427Z,11.30
2023-02-23T08:18:43.177Z,11.30
2023-02-23T08:21:09.908Z,11.40
2023-02-23T08:23:36.657Z,11.40
2023-02-23T08:26:03.423Z,11.30
2023-02-23T08:28:31.095Z,11.30
2023-02-23T08:30:59.269Z,11.40
2023-02-23T08:33:26.431Z,11.70
2023-02-23T08:35:53.513Z,12.10
2023-02-23T08:38:20.309Z,12.30
2023-02-23T08:40:46.964Z,12.50
2023-02-23T08:43:13.587Z,12.60
2023-02-23T08:45:40.353Z,12.80
2023-02-23T08:48:08.764Z,12.90
2023-02-23T08:50:35.646Z,13.00
2023-02-23T08:53:02.394Z,13.20
2023-02-23T08:55:29.036Z,13.00
2023-02-23T08:57:55.694Z,12.60
2023-02-23T09:00:22.772Z,12.30
2023-02-23T09:02:49.931Z,12.00
2023-02-23T09:05:17.070Z,11.90
2023-02-23T09:07:45.093Z,11.80
2023-02-23T09:10:17.293Z,11.70
2023-02-23T09:12:43.919Z,11.70
2023-02-23T09:15:12.201Z,11.60
2023-02-23T09:17:38.939Z,11.60
2023-02-23T09:20:06.539Z,11.50
2023-02-23T09:22:36.757Z,11.30
2023-02-23T09:25:04.829Z,11.30
2023-02-23T09:27:31.700Z,11.60
2023-02-23T09:29:58.362Z,11.60
2023-02-23T09:32:25.159Z,11.60
2023-02-23T09:34:52.461Z,11.60
2023-02-23T09:37:19.351Z,11.50
2023-02-23T09:39:48.650Z,11.60
2023-02-23T09:42:43.002Z,12.00
2023-02-23T09:45:15.838Z,12.10
2023-02-23T09:47:58.795Z,12.10
2023-02-23T09:50:29.783Z,12.60
2023-02-23T09:53:04.968Z,12.60
2023-02-23T09:55:32.558Z,12.40
2023-02-23T09:58:08.456Z,12.30
2023-02-23T10:00:43.531Z,12.20
2023-02-23T10:03:22.297Z,12.10
2023-02-23T10:05:56.144Z,12.40
2023-02-23T10:08:30.564Z,12.50
2023-02-23T10:11:05.406Z,12.30
2023-02-23T10:13:55.312Z,12.60
2023-02-23T10:16:36.657Z,12.70
2023-02-23T10:19:13.487Z,12.90
2023-02-23T10:21:44.760Z,13.10
2023-02-23T10:24:19.320Z,13.10
2023-02-23T10:26:54.208Z,13.40
2023-02-23T10:29:22.833Z,13.60
2023-02-23T10:31:54.076Z,13.10
2023-02-23T10:34:23.592Z,12.60
2023-02-23T10:37:05.771Z,12.60
2023-02-23T10:39:33.966Z,12.90
2023-02-23T10:42:05.327Z,12.90
2023-02-23T10:44:32.725Z,12.60
2023-02-23T10:47:05.937Z,12.30
2023-02-23T10:49:41.168Z,12.10
2023-02-23T10:52:18.476Z,12.40
2023-02-23T10:54:50.047Z,12.90
2023-02-23T10:57:27.321Z,13.10
2023-02-23T11:00:16.308Z,12.80
2023-02-23T11:02:47.445Z,12.50
2023-02-23T11:05:34.051Z,12.20
2023-02-23T11:08:38.066Z,12.30
2023-02-23T11:11:15.916Z,12.70
2023-02-23T11:13:48.460Z,13.00
2023-02-23T11:16:30.250Z,12.70
2023-02-23T11:18:59.869Z,12.50
2023-02-23T11:21:39.808Z,12.10
2023-02-23T11:24:41.792Z,12.00
2023-02-23T11:27:21.338Z,12.00
2023-02-23T11:29:50.834Z,11.70
2023-02-23T11:32:21.280Z,11.80
2023-02-23T11:35:08.520Z,11.80
2023-02-23T11:37:36.335Z,11.80
2023-02-23T11:40:24.025Z,12.20
2023-02-23T11:42:56.568Z,12.00
2023-02-23T11:45:28.761Z,11.90
2023-02-23T11:47:59.296Z,12.00
2023-02-23T11:50:35.391Z,12.10
2023-02-23T11:53:13.695Z,12.10
2023-02-23T11:55:46.327Z,11.80
2023-02-23T11:58:25.342Z,12.00
2023-02-23T12:01:11.054Z,12.00
2023-02-23T12:03:43.890Z,12.00
2023-02-23T12:06:11.109Z,12.00
2023-02-23T12:08:47.110Z,11.90
2023-02-23T12:11:20.598Z,11.80
2023-02-23T12:13:55.761Z,11.80
2023-02-23T12:16:32.526Z,11.70
2023-02-23T12:19:12.263Z,11.90
2023-02-23T12:21:50.893Z,12.00
2023-02-23T12:24:42.651Z,12.20
2023-02-23T12:27:12.785Z,12.30
2023-02-23T12:30:17.615Z,12.20
2023-02-23T12:33:03.681Z,12.30
2023-02-23T12:36:02.016Z,12.00
2023-02-23T12:38:57.399Z,12.10
2023-02-23T12:41:48.062Z,12.60
2023-02-23T12:44:31.645Z,12.40
2023-02-23T12:47:21.166Z,12.20
2023-02-23T12:50:07.213Z,12.40
2023-02-23T12:52:44.462Z,12.80
2023-02-23T12:55:13.257Z,12.50
2023-02-23T12:57:54.622Z,12.50
2023-02-23T13:00:45.694Z,12.60
2023-02-23T13:03:18.051Z,12.90
2023-02-23T13:06:01.782Z,12.90
2023-02-23T13:08:55.988Z,13.20
2023-02-23T13:11:49.795Z,13.50
2023-02-23T13:14:32.897Z,13.10
2023-02-23T13:17:02.729Z,12.90
2023-02-23T13:19:42.327Z,13.20
2023-02-23T13:22:50.491Z,13.20
2023-02-23T13:25:49.050Z,13.30
2023-02-23T13:28:47.441Z,13.20
2023-02-23T13:31:36.257Z,13.20
2023-02-23T13:34:06.453Z,13.40
2023-02-23T13:36:35.082Z,13.40
2023-02-23T13:39:22.969Z,13.50
2023-02-23T13:41:54.644Z,13.50
2023-02-23T13:44:33.165Z,13.40
2023-02-23T13:47:14.861Z,13.30
2023-02-23T13:49:58.004Z,13.60
2023-02-23T13:52:43.198Z,13.50
2023-02-23T13:55:32.702Z,13.40
2023-02-23T13:58:17.027Z,13.50
2023-02-23T14:00:44.555Z,13.80
2023-02-23T14:03:24.431Z,13.50
2023-02-23T14:05:57.327Z,13.20
2023-02-23T14:08:34.642Z,13.00
2023-02-23T14:11:01.950Z,12.70
2023-02-23T14:13:34.002Z,12.50
2023-02-23T14:16:13.567Z,13.10
2023-02-23T14:19:08.084Z,12.80
2023-02-23T14:22:00.696Z,12.50
2023-02-23T14:24:28.264Z,12.90
2023-02-23T14:27:04.509Z,13.20
2023-02-23T14:29:40.252Z,13.20
2023-02-23T14:32:12.929Z,12.90
2023-02-23T14:34:42.806Z,12.70
2023-02-23T14:37:25.252Z,13.40
2023-02-23T14:39:55.280Z,13.70
2023-02-23T14:42:27.569Z,13.80
2023-02-23T14:44:56.200Z,13.90
2023-02-23T14:47:25.971Z,13.70
2023-02-23T14:49:58.005Z,13.10
2023-02-23T14:52:40.646Z,13.40
2023-02-23T14:55:30.155Z,13.30
2023-02-23T14:57:58.067Z,13.30
2023-02-23T15:00:28.228Z,13.50
2023-02-23T15:03:01.195Z,13.00
2023-02-23T15:05:31.595Z,13.10
2023-02-23T15:08:00.680Z,13.00
2023-02-23T15:10:37.082Z,13.30
2023-02-23T15:13:31.584Z,13.60
2023-02-23T15:16:06.754Z,13.70
2023-02-23T15:19:29.652Z,13.40
2023-02-23T15:21:58.207Z,13.30
2023-02-23T15:24:32.521Z,13.30
2023-02-23T15:27:00.199Z,13.10
2023-02-23T15:29:33.361Z,13.20
2023-02-23T15:32:21.646Z,13.40
2023-02-23T15:34:48.732Z,13.60
2023-02-23T15:37:34.467Z,13.60
2023-02-23T15:40:10.889Z,13.60
2023-02-23T15:42:40.327Z,13.60
2023-02-23T15:45:35.584Z,13.80
2023-02-23T15:48:06.871Z,13.70
2023-02-23T15:50:40.273Z,13.80
2023-02-23T15:53:14.564Z,13.60
2023-02-23T15:55:43.399Z,13.50
2023-02-23T15:58:32.291Z,13.50
2023-02-23T16:01:07.901Z,13.50
2023-02-23T16:03:37.230Z,13.80
2023-02-23T16:06:08.082Z,13.90
2023-02-23T16:08:36.900Z,13.90
2023-02-23T16:11:17.137Z,13.50
2023-02-23T16:13:47.841Z,13.00
2023-02-23T16:16:20.264Z,12.60
2023-02-23T16:18:53.073Z,12.90
2023-02-23T16:21:23.888Z,13.00
2023-02-23T16:23:54.140Z,13.30
2023-02-23T16:26:40.309Z,13.10
2023-02-23T16:29:12.662Z,13.20
2023-02-23T16:31:49.164Z,12.50
2023-02-23T16:34:37.430Z,12.10
2023-02-23T16:37:15.576Z,12.00
2023-02-23T16:39:42.318Z,11.80
2023-02-23T16:42:26.778Z,11.80
2023-02-23T16:44:53.926Z,11.70
2023-02-23T16:47:23.636Z,11.70
2023-02-23T16:49:51.373Z,11.60
2023-02-23T16:52:22.261Z,11.60
2023-02-23T16:54:54.496Z,11.60
2023-02-23T16:57:25.894Z,11.60
2023-02-23T16:59:54.392Z,11.60
2023-02-23T17:02:24.497Z,11.60
2023-02-23T17:04:51.792Z,11.60
2023-02-23T17:07:22.374Z,11.60
2023-02-23T17:09:50.414Z,11.50
2023-02-23T17:12:21.649Z,11.40
2023-02-23T17:14:49.528Z,11.40
2023-02-23T17:17:18.251Z,11.40
2023-02-23T17:19:46.523Z,11.50
2023-02-23T17:22:14.162Z,11.30
2023-02-23T17:24:42.230Z,11.30
2023-02-23T17:27:08.879Z,11.30
2023-02-23T17:29:35.548Z,11.40
2023-02-23T17:32:02.762Z,11.30
2023-02-23T17:34:30.117Z,11.20
2023-02-23T17:36:56.706Z,11.10
2023-02-23T17:39:27.822Z,11.10
2023-02-23T17:41:55.269Z,11.20
2023-02-23T17:44:21.974Z,11.20
2023-02-23T17:46:48.826Z,11.10
2023-02-23T17:49:15.432Z,11.20
2023-02-23T17:51:42.054Z,11.20
2023-02-23T17:54:08.702Z,11.30
2023-02-23T17:56:35.731Z,11.30
2023-02-23T17:59:02.917Z,11.20
2023-02-23T18:01:29.648Z,11.20
2023-02-23T18:03:58.420Z,11.20
2023-02-23T18:06:25.144Z,11.20
2023-02-23T18:08:51.760Z,11.10
2023-02-23T18:11:19.728Z,11.00
2023-02-23T18:13:48.052Z,11.10
2023-02-23T18:16:15.962Z,11.10
2023-02-23T18:18:46.316Z,11.10
2023-02-23T18:21:15.796Z,11.10
2023-02-23T18:23:43.243Z,11.00
2023-02-23T18:26:12.526Z,11.40
2023-02-23T18:28:40.970Z,12.00
2023-02-23T18:31:07.854Z,12.10
2023-02-23T18:33:35.683Z,12.20
2023-02-23T18:36:03.643Z,12.30
2023-02-23T18:38:30.270Z,12.30
2023-02-23T18:40:57.228Z,12.30
2023-02-23T18:43:23.860Z,12.00
2023-02-23T18:45:50.543Z,12.20
2023-02-23T18:48:17.273Z,12.40
2023-02-23T18:50:43.957Z,12.70
2023-02-23T18:53:10.960Z,13.10
2023-02-23T18:55:38.725Z,13.30
2023-02-23T18:58:05.680Z,13.50
2023-02-23T19:00:36.950Z,13.50
2023-02-23T19:03:03.667Z,13.40
2023-02-23T19:05:30.408Z,12.90
2023-02-23T19:07:57.309Z,12.70
2023-02-23T19:10:23.919Z,12.40
2023-02-23T19:12:50.570Z,12.00
2023-02-23T19:15:17.318Z,12.20
2023-02-23T19:17:45.265Z,12.60
2023-02-23T19:20:13.698Z,13.00
2023-02-23T19:22:41.675Z,12.90
2023-02-23T19:25:11.481Z,13.00
2023-02-23T19:27:38.445Z,12.90
2023-02-23T19:30:08.812Z,12.30
2023-02-23T19:32:36.302Z,12.10
2023-02-23T19:35:03.050Z,12.00
2023-02-23T19:37:29.716Z,12.00
2023-02-23T19:39:56.366Z,12.10
2023-02-23T19:42:23.058Z,12.00
2023-02-23T19:44:49.677Z,11.90
2023-02-23T19:47:16.255Z,11.70
2023-02-23T19:49:42.966Z,11.70
2023-02-23T19:52:09.565Z,11.70
2023-02-23T19:54:38.589Z,11.60
2023-02-23T19:57:05.233Z,11.50
2023-02-23T19:59:31.884Z,11.50
2023-02-23T20:01:58.600Z,11.50
2023-02-23T20:04:26.918Z,11.50
2023-02-23T20:06:53.554Z,11.60
2023-02-23T20:09:20.158Z,11.70
2023-02-23T20:11:48.005Z,11.50
2023-02-23T20:14:15.462Z,11.60
2023-02-23T20:16:42.166Z,11.70
2023-02-23T20:19:09.125Z,11.90
2023-02-23T20:21:36.632Z,11.60
2023-02-23T20:24:05.400Z,11.60
2023-02-23T20:26:35.225Z,11.30
2023-02-23T20:29:03.897Z,11.70
2023-02-23T20:31:35.624Z,11.90
2023-02-23T20:34:06.256Z,11.80
2023-02-23T20:36:33.265Z,11.70
2023-02-23T20:39:00.330Z,11.80
2023-02-23T20:41:28.010Z,11.90
2023-02-23T20:43:55.734Z,11.90
2023-02-23T20:46:22.443Z,12.10
2023-02-23T20:48:49.172Z,12.30
2023-02-23T20:51:18.623Z,12.00
2023-02-23T20:53:46.854Z,12.00
2023-02-23T20:56:21.632Z,11.90
2023-02-23T20:58:48.276Z,11.70
2023-02-23T21:01:19.117Z,11.60
2023-02-23T21:03:46.564Z,11.50
2023-02-23T21:06:13.234Z,11.30
2023-02-23T21:08:42.128Z,11.30
2023-02-23T21:11:08.937Z,11.50
2023-02-23T21:13:37.501Z,12.00
2023-02-23T21:16:04.703Z,11.90
2023-02-23T21:18:31.820Z,11.50
2023-02-23T21:21:06.523Z,11.30
2023-02-23T21:23:33.153Z,11.30
2023-02-23T21:26:07.478Z,11.50
2023-02-23T21:28:35.333Z,11.60
2023-02-23T21:31:02.069Z,11.40
2023-02-23T21:33:29.949Z,11.10
2023-02-23T21:35:58.681Z,11.20
2023-02-23T21:38:25.812Z,11.20
2023-02-23T21:40:52.995Z,11.30
2023-02-23T21:43:19.610Z,11.60
2023-02-23T21:45:46.682Z,11.70
2023-02-23T21:48:13.629Z,11.50
2023-02-23T21:50:40.337Z,11.50
2023-02-23T21:53:09.215Z,11.60
2023-02-23T21:55:38.609Z,11.50
2023-02-23T21:58:07.003Z,11.70
2023-02-23T22:00:35.624Z,11.90
2023-02-23T22:03:03.119Z,11.80
2023-02-23T22:05:29.860Z,11.50
2023-02-23T22:07:56.466Z,11.40
2023-02-23T22:10:24.474Z,11.30
2023-02-23T22:12:55.692Z,11.30
2023-02-23T22:15:27.092Z,11.80
2023-02-23T22:17:54.129Z,11.70
2023-02-23T22:20:21.078Z,11.50
2023-02-23T22:22:50.324Z,11.40
2023-02-23T22:25:18.465Z,11.60
2023-02-23T22:27:45.146Z,11.80
2023-02-23T22:30:13.899Z,12.10
2023-02-23T22:32:42.472Z,12.10
2023-02-23T22:35:10.036Z,12.10
2023-02-23T22:37:36.778Z,11.90
2023-02-23T22:40:11.974Z,12.10
2023-02-23T22:42:38.621Z,11.70
2023-02-23T22:45:06.087Z,11.60
2023-02-23T22:47:34.832Z,11.70
2023-02-23T22:50:01.503Z,11.70
2023-02-23T22:52:29.748Z,12.10
2023-02-23T22:54:56.411Z,12.00
2023-02-23T22:57:23.400Z,12.40
2023-02-23T23:00:00.757Z,12.60
2023-02-23T23:02:32.099Z,13.10
2023-02-23T23:04:59.665Z,13.30
2023-02-23T23:07:26.631Z,12.80
2023-02-23T23:09:54.205Z,12.60
2023-02-23T23:12:21.124Z,12.60
2023-02-23T23:14:47.753Z,12.00
2023-02-23T23:17:15.327Z,11.40
2023-02-23T23:19:42.142Z,11.50
2023-02-23T23:22:14.314Z,11.20
2023-02-23T23:24:45.753Z,11.30
2023-02-23T23:27:14.489Z,11.20
2023-02-23T23:29:45.576Z,11.50
2023-02-23T23:32:18.250Z,11.40
2023-02-23T23:34:49.282Z,11.60
2023-02-23T23:37:18.075Z,11.70
2023-02-23T23:39:45.341Z,11.90
2023-02-23T23:42:12.776Z,11.80
2023-02-23T23:44:39.388Z,12.20
2023-02-23T23:47:06.219Z,12.50
2023-02-23T23:49:38.463Z,12.10
2023-02-23T23:52:06.234Z,11.60
2023-02-23T23:54:38.608Z,11.30
2023-02-23T23:57:05.813Z,11.00
2023-02-23T23:59:33.831Z,11.60
